sensor_id;sensor_type;location;lat;lon;timestamp;pressure;altitude;pressure_sealevel;temperature;humidity
23223;BME280;11780;13.904;100.620;2022-12-07T00:00:02;101119.97;;;29.73;65.88
23223;BME280;11780;13.904;100.620;2022-12-07T00:02:48;101110.66;;;29.69;65.58
23223;BME280;11780;13.904;100.620;2022-12-07T00:05:18;101120.56;;;29.70;65.79
23223;BME280;11780;13.904;100.620;2022-12-07T00:07:49;101112.31;;;29.70;65.49
23223;BME280;11780;13.904;100.620;2022-12-07T00:10:19;101126.59;;;29.72;65.33
23223;BME280;11780;13.904;100.620;2022-12-07T00:12:49;101126.09;;;29.70;65.22
23223;BME280;11780;13.904;100.620;2022-12-07T00:15:19;101131.59;;;29.70;65.22
23223;BME280;11780;13.904;100.620;2022-12-07T00:17:49;101131.59;;;29.70;64.93
23223;BME280;11780;13.904;100.620;2022-12-07T00:20:19;101136.00;;;29.71;64.61
23223;BME280;11780;13.904;100.620;2022-12-07T00:22:49;101144.59;;;29.70;64.67
23223;BME280;11780;13.904;100.620;2022-12-07T00:25:20;101143.25;;;29.67;64.56
23223;BME280;11780;13.904;100.620;2022-12-07T00:27:52;101149.28;;;29.69;64.18
23223;BME280;11780;13.904;100.620;2022-12-07T00:30:25;101153.66;;;29.70;64.48
23223;BME280;11780;13.904;100.620;2022-12-07T00:32:55;101167.44;;;29.70;64.29
23223;BME280;11780;13.904;100.620;2022-12-07T00:35:25;101172.16;;;29.70;64.31
23223;BME280;11780;13.904;100.620;2022-12-07T00:37:55;101166.66;;;29.70;63.78
23223;BME280;11780;13.904;100.620;2022-12-07T00:40:25;101176.03;;;29.69;64.11
23223;BME280;11780;13.904;100.620;2022-12-07T00:42:55;101177.97;;;29.68;63.87
23223;BME280;11780;13.904;100.620;2022-12-07T00:45:25;101184.00;;;29.70;63.84
23223;BME280;11780;13.904;100.620;2022-12-07T00:47:55;101182.34;;;29.69;63.78
23223;BME280;11780;13.904;100.620;2022-12-07T00:50:25;101188.69;;;29.70;63.74
23223;BME280;11780;13.904;100.620;2022-12-07T00:52:55;101205.25;;;29.70;63.53
23223;BME280;11780;13.904;100.620;2022-12-07T00:55:25;101200.00;;;29.68;63.56
23223;BME280;11780;13.904;100.620;2022-12-07T00:57:55;101199.72;;;29.70;63.41
23223;BME280;11780;13.904;100.620;2022-12-07T01:00:25;101204.41;;;29.69;63.61
23223;BME280;11780;13.904;100.620;2022-12-07T01:02:55;101212.41;;;29.71;63.45
23223;BME280;11780;13.904;100.620;2022-12-07T01:05:26;101210.16;;;29.73;63.21
23223;BME280;11780;13.904;100.620;2022-12-07T01:07:56;101220.94;;;29.69;63.35
23223;BME280;11780;13.904;100.620;2022-12-07T01:10:44;101226.97;;;29.71;63.41
23223;BME280;11780;13.904;100.620;2022-12-07T01:13:34;101228.94;;;29.71;63.55
23223;BME280;11780;13.904;100.620;2022-12-07T01:16:06;101228.94;;;29.71;63.77
23223;BME280;11780;13.904;100.620;2022-12-07T01:18:37;101233.53;;;29.75;63.66
23223;BME280;11780;13.904;100.620;2022-12-07T01:21:13;101239.84;;;29.76;63.83
23223;BME280;11780;13.904;100.620;2022-12-07T01:23:44;101234.34;;;29.76;63.74
23223;BME280;11780;13.904;100.620;2022-12-07T01:26:18;101235.16;;;29.76;63.97
23223;BME280;11780;13.904;100.620;2022-12-07T01:28:49;101230.78;;;29.75;63.94
23223;BME280;11780;13.904;100.620;2022-12-07T01:31:38;101236.81;;;29.77;64.21
23223;BME280;11780;13.904;100.620;2022-12-07T01:34:08;101233.53;;;29.75;63.78
23223;BME280;11780;13.904;100.620;2022-12-07T01:36:39;101241.22;;;29.78;63.85
23223;BME280;11780;13.904;100.620;2022-12-07T01:39:09;101244.25;;;29.77;63.71
23223;BME280;11780;13.904;100.620;2022-12-07T01:41:40;101234.06;;;29.77;63.77
23223;BME280;11780;13.904;100.620;2022-12-07T01:44:31;101238.72;;;29.77;63.80
23223;BME280;11780;13.904;100.620;2022-12-07T01:47:04;101231.91;;;29.74;63.97
23223;BME280;11780;13.904;100.620;2022-12-07T01:49:52;101245.09;;;29.77;64.13
23223;BME280;11780;13.904;100.620;2022-12-07T01:52:30;101242.31;;;29.77;63.91
23223;BME280;11780;13.904;100.620;2022-12-07T01:55:19;101242.84;;;29.80;63.68
23223;BME280;11780;13.904;100.620;2022-12-07T01:57:52;101247.72;;;29.83;63.81
23223;BME280;11780;13.904;100.620;2022-12-07T02:00:23;101242.84;;;29.80;63.76
23223;BME280;11780;13.904;100.620;2022-12-07T02:03:04;101253.88;;;29.80;63.94
23223;BME280;11780;13.904;100.620;2022-12-07T02:05:38;101251.13;;;29.80;63.45
23223;BME280;11780;13.904;100.620;2022-12-07T02:08:11;101253.88;;;29.80;63.89
23223;BME280;11780;13.904;100.620;2022-12-07T02:10:42;101246.72;;;29.78;63.62
23223;BME280;11780;13.904;100.620;2022-12-07T02:13:21;101248.34;;;29.80;63.55
23223;BME280;11780;13.904;100.620;2022-12-07T02:19:34;101255.00;;;29.78;63.65
23223;BME280;11780;13.904;100.620;2022-12-07T02:30:43;101246.13;;;29.82;63.78
23223;BME280;11780;13.904;100.620;2022-12-07T02:33:44;101246.13;;;29.82;63.81
23223;BME280;11780;13.904;100.620;2022-12-07T02:36:36;101244.97;;;29.83;64.06
23223;BME280;11780;13.904;100.620;2022-12-07T02:39:30;101238.97;;;29.81;63.96
23223;BME280;11780;13.904;100.620;2022-12-07T02:42:12;101246.59;;;29.84;63.77
23223;BME280;11780;13.904;100.620;2022-12-07T02:44:45;101249.06;;;29.85;63.81
23223;BME280;11780;13.904;100.620;2022-12-07T02:47:17;101245.47;;;29.85;63.87
23223;BME280;11780;13.904;100.620;2022-12-07T02:49:49;101242.72;;;29.85;63.89
23223;BME280;11780;13.904;100.620;2022-12-07T02:52:20;101236.41;;;29.84;63.62
23223;BME280;11780;13.904;100.620;2022-12-07T02:54:50;101234.44;;;29.85;63.19
23223;BME280;11780;13.904;100.620;2022-12-07T03:00:27;101232.72;;;29.89;63.75
23223;BME280;11780;13.904;100.620;2022-12-07T03:03:11;101233.25;;;29.91;63.88
23223;BME280;11780;13.904;100.620;2022-12-07T03:06:09;101227.72;;;29.91;63.97
23223;BME280;11780;13.904;100.620;2022-12-07T03:11:51;101223.00;;;29.91;64.10
23223;BME280;11780;13.904;100.620;2022-12-07T03:14:40;101223.84;;;29.92;64.04
23223;BME280;11780;13.904;100.620;2022-12-07T03:17:17;101226.28;;;29.93;63.79
23223;BME280;11780;13.904;100.620;2022-12-07T03:19:51;101227.13;;;29.94;63.82
23223;BME280;11780;13.904;100.620;2022-12-07T03:22:23;101233.44;;;29.95;63.83
23223;BME280;11780;13.904;100.620;2022-12-07T03:24:58;101230.69;;;29.95;63.30
23223;BME280;11780;13.904;100.620;2022-12-07T03:27:41;101228.78;;;29.95;63.58
23223;BME280;11780;13.904;100.620;2022-12-07T03:30:20;101220.50;;;29.95;63.43
23223;BME280;11780;13.904;100.620;2022-12-07T03:32:59;101223.28;;;29.95;63.50
23223;BME280;11780;13.904;100.620;2022-12-07T03:35:42;101217.75;;;29.95;63.28
23223;BME280;11780;13.904;100.620;2022-12-07T03:38:25;101222.16;;;29.96;63.50
23223;BME280;11780;13.904;100.620;2022-12-07T03:43:51;101213.88;;;29.96;63.60
23223;BME280;11780;13.904;100.620;2022-12-07T03:47:08;101203.66;;;29.97;63.46
23223;BME280;11780;13.904;100.620;2022-12-07T03:49:56;101198.44;;;29.95;63.64
23223;BME280;11780;13.904;100.620;2022-12-07T03:52:47;101195.06;;;29.98;63.00
23223;BME280;11780;13.904;100.620;2022-12-07T03:55:28;101196.22;;;29.97;63.21
23223;BME280;11780;13.904;100.620;2022-12-07T03:58:19;101190.69;;;29.97;63.21
23223;BME280;11780;13.904;100.620;2022-12-07T04:00:51;101185.66;;;29.99;63.30
23223;BME280;11780;13.904;100.620;2022-12-07T04:03:22;101179.03;;;30.00;63.54
23223;BME280;11780;13.904;100.620;2022-12-07T04:05:52;101181.78;;;30.00;62.90
23223;BME280;11780;13.904;100.620;2022-12-07T04:08:23;101178.22;;;30.00;63.50
23223;BME280;11780;13.904;100.620;2022-12-07T04:10:53;101175.13;;;30.01;63.37
23223;BME280;11780;13.904;100.620;2022-12-07T04:13:23;101170.75;;;30.00;63.35
23223;BME280;11780;13.904;100.620;2022-12-07T04:15:53;101165.75;;;30.02;63.30
23223;BME280;11780;13.904;100.620;2022-12-07T04:18:23;101157.47;;;30.02;63.11
23223;BME280;11780;13.904;100.620;2022-12-07T04:20:53;101149.19;;;30.02;63.03
23223;BME280;11780;13.904;100.620;2022-12-07T04:23:38;101140.13;;;30.02;63.33
23223;BME280;11780;13.904;100.620;2022-12-07T04:26:08;101141.75;;;30.03;63.67
23223;BME280;11780;13.904;100.620;2022-12-07T04:28:38;101141.75;;;30.03;63.32
23223;BME280;11780;13.904;100.620;2022-12-07T04:31:09;101133.16;;;30.04;63.25
23223;BME280;11780;13.904;100.620;2022-12-07T04:33:39;101133.16;;;30.04;63.54
23223;BME280;11780;13.904;100.620;2022-12-07T04:36:09;101121.59;;;30.02;63.35
23223;BME280;11780;13.904;100.620;2022-12-07T04:38:39;101124.56;;;30.06;63.36
23223;BME280;11780;13.904;100.620;2022-12-07T04:41:09;101109.63;;;30.07;63.34
23223;BME280;11780;13.904;100.620;2022-12-07T04:43:39;101106.88;;;30.07;62.89
23223;BME280;11780;13.904;100.620;2022-12-07T04:46:10;101103.31;;;30.06;63.10
23223;BME280;11780;13.904;100.620;2022-12-07T04:48:40;101099.44;;;30.07;62.68
23223;BME280;11780;13.904;100.620;2022-12-07T04:51:10;101096.34;;;30.09;62.55
23223;BME280;11780;13.904;100.620;2022-12-07T04:53:40;101098.31;;;30.08;62.43
23223;BME280;11780;13.904;100.620;2022-12-07T04:56:10;101082.56;;;30.09;62.55
23223;BME280;11780;13.904;100.620;2022-12-07T04:58:55;101084.53;;;30.08;62.34
23223;BME280;11780;13.904;100.620;2022-12-07T05:01:25;101077.38;;;30.07;62.71
23223;BME280;11780;13.904;100.620;2022-12-07T05:03:55;101086.16;;;30.10;62.26
23223;BME280;11780;13.904;100.620;2022-12-07T05:06:25;101076.75;;;30.11;62.24
23223;BME280;11780;13.904;100.620;2022-12-07T05:09:14;101079.50;;;30.11;62.20
23223;BME280;11780;13.904;100.620;2022-12-07T05:11:44;101069.28;;;30.11;61.83
23223;BME280;11780;13.904;100.620;2022-12-07T05:14:18;101072.88;;;30.12;61.71
23223;BME280;11780;13.904;100.620;2022-12-07T05:16:50;101063.75;;;30.11;62.55
23223;BME280;11780;13.904;100.620;2022-12-07T05:19:20;101059.88;;;30.12;62.47
23223;BME280;11780;13.904;100.620;2022-12-07T05:21:50;101052.44;;;30.13;62.36
23223;BME280;11780;13.904;100.620;2022-12-07T05:24:21;101054.88;;;30.14;62.23
23223;BME280;11780;13.904;100.620;2022-12-07T05:26:51;101038.31;;;30.14;62.28
23223;BME280;11780;13.904;100.620;2022-12-07T05:29:21;101025.31;;;30.15;61.94
23223;BME280;11780;13.904;100.620;2022-12-07T05:31:51;101029.22;;;30.14;62.11
23223;BME280;11780;13.904;100.620;2022-12-07T05:34:21;101023.69;;;30.14;62.28
23223;BME280;11780;13.904;100.620;2022-12-07T05:36:52;101020.94;;;30.14;62.03
23223;BME280;11780;13.904;100.620;2022-12-07T05:39:55;101026.16;;;30.15;62.67
23223;BME280;11780;13.904;100.620;2022-12-07T05:42:41;101014.28;;;30.15;62.68
23223;BME280;11780;13.904;100.620;2022-12-07T05:45:12;101010.72;;;30.14;61.55
23223;BME280;11780;13.904;100.620;2022-12-07T05:47:42;100998.88;;;30.14;60.65
23223;BME280;11780;13.904;100.620;2022-12-07T05:50:12;100986.69;;;30.15;60.62
23223;BME280;11780;13.904;100.620;2022-12-07T05:52:43;100991.09;;;30.16;60.87
23223;BME280;11780;13.904;100.620;2022-12-07T05:55:13;100980.88;;;30.16;61.23
23223;BME280;11780;13.904;100.620;2022-12-07T05:57:43;100980.88;;;30.16;61.04
23223;BME280;11780;13.904;100.620;2022-12-07T06:00:48;100974.25;;;30.17;60.23
23223;BME280;11780;13.904;100.620;2022-12-07T06:03:19;100969.53;;;30.18;60.40
23223;BME280;11780;13.904;100.620;2022-12-07T06:05:49;100969.22;;;30.19;60.71
23223;BME280;11780;13.904;100.620;2022-12-07T06:08:19;100962.59;;;30.20;60.53
23223;BME280;11780;13.904;100.620;2022-12-07T06:10:49;100951.56;;;30.20;60.34
23223;BME280;11780;13.904;100.620;2022-12-07T06:13:39;100951.56;;;30.20;60.20
23223;BME280;11780;13.904;100.620;2022-12-07T06:16:13;100950.38;;;30.21;61.76
23223;BME280;11780;13.904;100.620;2022-12-07T06:18:44;100936.91;;;30.20;60.36
23223;BME280;11780;13.904;100.620;2022-12-07T06:21:14;100935.00;;;30.20;60.22
23223;BME280;11780;13.904;100.620;2022-12-07T06:23:44;100925.09;;;30.19;61.28
23223;BME280;11780;13.904;100.620;2022-12-07T06:26:14;100917.63;;;30.20;61.17
23223;BME280;11780;13.904;100.620;2022-12-07T06:28:44;100920.88;;;30.22;60.84
23223;BME280;11780;13.904;100.620;2022-12-07T06:31:14;100915.34;;;30.22;60.92
23223;BME280;11780;13.904;100.620;2022-12-07T06:33:45;100907.88;;;30.22;61.73
23223;BME280;11780;13.904;100.620;2022-12-07T06:36:15;100908.22;;;30.21;61.31
23223;BME280;11780;13.904;100.620;2022-12-07T06:38:52;100897.66;;;30.23;60.93
23223;BME280;11780;13.904;100.620;2022-12-07T06:41:22;100892.97;;;30.23;60.70
23223;BME280;11780;13.904;100.620;2022-12-07T06:43:52;100892.66;;;30.25;61.28
23223;BME280;11780;13.904;100.620;2022-12-07T06:46:23;100889.91;;;30.25;61.15
23223;BME280;11780;13.904;100.620;2022-12-07T06:48:53;100883.25;;;30.26;61.28
23223;BME280;11780;13.904;100.620;2022-12-07T06:51:23;100886.00;;;30.26;61.99
23223;BME280;11780;13.904;100.620;2022-12-07T06:53:53;100876.91;;;30.26;61.91
23223;BME280;11780;13.904;100.620;2022-12-07T06:56:42;100867.50;;;30.27;61.73
23223;BME280;11780;13.904;100.620;2022-12-07T06:59:13;100872.72;;;30.28;61.03
23223;BME280;11780;13.904;100.620;2022-12-07T07:01:43;100863.09;;;30.26;62.16
23223;BME280;11780;13.904;100.620;2022-12-07T07:04:13;100865.56;;;30.27;62.21
23223;BME280;11780;13.904;100.620;2022-12-07T07:06:43;100862.81;;;30.27;62.31
23223;BME280;11780;13.904;100.620;2022-12-07T07:09:13;100852.25;;;30.29;61.93
23223;BME280;11780;13.904;100.620;2022-12-07T07:11:43;100841.88;;;30.26;62.46
23223;BME280;11780;13.904;100.620;2022-12-07T07:14:13;100850.66;;;30.28;62.77
23223;BME280;11780;13.904;100.620;2022-12-07T07:17:06;100854.53;;;30.27;62.72
23223;BME280;11780;13.904;100.620;2022-12-07T07:19:37;100833.59;;;30.26;62.33
23223;BME280;11780;13.904;100.620;2022-12-07T07:22:07;100833.59;;;30.26;62.26
23223;BME280;11780;13.904;100.620;2022-12-07T07:24:56;100823.34;;;30.27;62.67
23223;BME280;11780;13.904;100.620;2022-12-07T07:27:26;100818.66;;;30.27;62.45
23223;BME280;11780;13.904;100.620;2022-12-07T07:29:56;100826.59;;;30.29;61.53
23223;BME280;11780;13.904;100.620;2022-12-07T07:32:41;100807.78;;;30.31;61.95
23223;BME280;11780;13.904;100.620;2022-12-07T07:35:12;100806.66;;;30.32;61.41
23223;BME280;11780;13.904;100.620;2022-12-07T07:37:43;100809.72;;;30.30;62.59
23223;BME280;11780;13.904;100.620;2022-12-07T07:40:13;100804.69;;;30.32;61.25
23223;BME280;11780;13.904;100.620;2022-12-07T07:42:43;100803.56;;;30.33;61.01
23223;BME280;11780;13.904;100.620;2022-12-07T07:45:14;100792.22;;;30.35;61.31
23223;BME280;11780;13.904;100.620;2022-12-07T07:47:44;100790.28;;;30.35;62.06
23223;BME280;11780;13.904;100.620;2022-12-07T07:50:15;100791.09;;;30.36;62.09
23223;BME280;11780;13.904;100.620;2022-12-07T07:52:45;100797.44;;;30.36;61.87
23223;BME280;11780;13.904;100.620;2022-12-07T07:55:16;100789.94;;;30.37;61.53
23223;BME280;11780;13.904;100.620;2022-12-07T07:57:46;100788.00;;;30.37;61.87
23223;BME280;11780;13.904;100.620;2022-12-07T08:00:21;100799.06;;;30.37;61.77
23223;BME280;11780;13.904;100.620;2022-12-07T08:02:52;100790.78;;;30.37;62.20
23223;BME280;11780;13.904;100.620;2022-12-07T08:05:22;100796.63;;;30.36;62.07
23223;BME280;11780;13.904;100.620;2022-12-07T08:07:52;100800.69;;;30.38;61.96
23223;BME280;11780;13.904;100.620;2022-12-07T08:10:22;100800.69;;;30.38;62.36
23223;BME280;11780;13.904;100.620;2022-12-07T08:12:52;100799.84;;;30.38;62.65
23223;BME280;11780;13.904;100.620;2022-12-07T08:15:47;100798.22;;;30.37;62.49
23223;BME280;11780;13.904;100.620;2022-12-07T08:18:18;100804.56;;;30.37;62.88
23223;BME280;11780;13.904;100.620;2022-12-07T08:20:48;100800.19;;;30.36;62.88
23223;BME280;11780;13.904;100.620;2022-12-07T08:23:18;100801.81;;;30.37;62.56
23223;BME280;11780;13.904;100.620;2022-12-07T08:26:17;100796.28;;;30.37;62.66
23223;BME280;11780;13.904;100.620;2022-12-07T08:28:47;100791.91;;;30.36;62.82
23223;BME280;11780;13.904;100.620;2022-12-07T08:31:18;100793.53;;;30.37;62.18
23223;BME280;11780;13.904;100.620;2022-12-07T08:33:48;100796.28;;;30.37;62.82
23223;BME280;11780;13.904;100.620;2022-12-07T08:36:19;100787.19;;;30.37;62.15
23223;BME280;11780;13.904;100.620;2022-12-07T08:38:49;100792.69;;;30.37;62.33
23223;BME280;11780;13.904;100.620;2022-12-07T08:41:39;100790.78;;;30.37;62.14
23223;BME280;11780;13.904;100.620;2022-12-07T08:44:09;100793.19;;;30.39;61.96
23223;BME280;11780;13.904;100.620;2022-12-07T08:46:50;100800.34;;;30.40;62.18
23223;BME280;11780;13.904;100.620;2022-12-07T08:49:30;100809.75;;;30.39;62.62
23223;BME280;11780;13.904;100.620;2022-12-07T08:52:04;100804.25;;;30.39;62.25
23223;BME280;11780;13.904;100.620;2022-12-07T08:54:37;100802.94;;;30.36;62.54
23223;BME280;11780;13.904;100.620;2022-12-07T08:57:10;100808.63;;;30.40;62.65
23223;BME280;11780;13.904;100.620;2022-12-07T08:59:59;100806.50;;;30.37;62.61
23223;BME280;11780;13.904;100.620;2022-12-07T09:02:31;100812.53;;;30.39;63.05
23223;BME280;11780;13.904;100.620;2022-12-07T09:05:02;100806.50;;;30.37;62.53
23223;BME280;11780;13.904;100.620;2022-12-07T09:07:34;100813.97;;;30.36;62.63
23223;BME280;11780;13.904;100.620;2022-12-07T09:10:05;100812.84;;;30.37;62.83
23223;BME280;11780;13.904;100.620;2022-12-07T09:12:35;100814.16;;;30.40;62.47
23223;BME280;11780;13.904;100.620;2022-12-07T09:15:06;100818.38;;;30.37;62.79
23223;BME280;11780;13.904;100.620;2022-12-07T09:17:37;100818.88;;;30.40;62.88
23223;BME280;11780;13.904;100.620;2022-12-07T09:20:08;100821.63;;;30.40;62.77
23223;BME280;11780;13.904;100.620;2022-12-07T09:22:38;100813.34;;;30.40;62.85
23223;BME280;11780;13.904;100.620;2022-12-07T09:25:09;100811.09;;;30.42;62.75
23223;BME280;11780;13.904;100.620;2022-12-07T09:27:39;100811.88;;;30.42;62.35
23223;BME280;11780;13.904;100.620;2022-12-07T09:30:10;100825.19;;;30.40;62.62
23223;BME280;11780;13.904;100.620;2022-12-07T09:32:40;100827.31;;;30.43;62.39
23223;BME280;11780;13.904;100.620;2022-12-07T09:35:10;100819.38;;;30.42;62.74
23223;BME280;11780;13.904;100.620;2022-12-07T09:37:40;100824.06;;;30.41;62.88
23223;BME280;11780;13.904;100.620;2022-12-07T09:40:11;100816.91;;;30.40;62.76
23223;BME280;11780;13.904;100.620;2022-12-07T09:42:45;100823.75;;;30.43;63.05
23223;BME280;11780;13.904;100.620;2022-12-07T09:47:51;100829.91;;;30.40;63.01
23223;BME280;11780;13.904;100.620;2022-12-07T09:50:24;100835.94;;;30.42;63.13
23223;BME280;11780;13.904;100.620;2022-12-07T09:53:13;100835.09;;;30.41;63.29
23223;BME280;11780;13.904;100.620;2022-12-07T09:56:03;100839.50;;;30.42;63.07
23223;BME280;11780;13.904;100.620;2022-12-07T09:58:33;100838.69;;;30.42;63.06
23223;BME280;11780;13.904;100.620;2022-12-07T10:01:21;100838.69;;;30.42;63.11
23223;BME280;11780;13.904;100.620;2022-12-07T10:04:20;100845.84;;;30.43;62.94
23223;BME280;11780;13.904;100.620;2022-12-07T10:07:09;100841.13;;;30.43;62.64
23223;BME280;11780;13.904;100.620;2022-12-07T10:09:39;100846.00;;;30.46;62.93
23223;BME280;11780;13.904;100.620;2022-12-07T10:12:11;100847.78;;;30.42;63.27
23223;BME280;11780;13.904;100.620;2022-12-07T10:15:00;100851.34;;;30.43;63.39
23223;BME280;11780;13.904;100.620;2022-12-07T10:17:53;100864.03;;;30.44;63.39
23223;BME280;11780;13.904;100.620;2022-12-07T10:20:26;100866.78;;;30.44;63.28
23223;BME280;11780;13.904;100.620;2022-12-07T10:23:01;100866.28;;;30.42;63.43
23223;BME280;11780;13.904;100.620;2022-12-07T10:25:36;100855.53;;;30.40;63.24
23223;BME280;11780;13.904;100.620;2022-12-07T10:28:34;100870.19;;;30.41;63.40
23223;BME280;11780;13.904;100.620;2022-12-07T10:31:20;100871.81;;;30.42;63.31
23223;BME280;11780;13.904;100.620;2022-12-07T10:34:24;100876.81;;;30.40;63.72
23223;BME280;11780;13.904;100.620;2022-12-07T10:37:18;100872.59;;;30.42;63.15
23223;BME280;11780;13.904;100.620;2022-12-07T10:39:55;100877.31;;;30.42;63.13
23223;BME280;11780;13.904;100.620;2022-12-07T10:42:27;100882.00;;;30.41;63.34
23223;BME280;11780;13.904;100.620;2022-12-07T10:45:17;100879.75;;;30.43;62.84
23223;BME280;11780;13.904;100.620;2022-12-07T10:48:08;100893.22;;;30.45;62.84
23223;BME280;11780;13.904;100.620;2022-12-07T11:01:50;100908.19;;;30.44;63.38
23223;BME280;11780;13.904;100.620;2022-12-07T11:08:17;100912.88;;;30.43;63.28
23223;BME280;11780;13.904;100.620;2022-12-07T11:10:39;100919.84;;;30.41;63.53
23223;BME280;11780;13.904;100.620;2022-12-07T11:16:05;100927.81;;;30.42;63.11
23223;BME280;11780;13.904;100.620;2022-12-07T11:24:44;100939.69;;;30.43;62.91
23223;BME280;11780;13.904;100.620;2022-12-07T11:27:36;100945.19;;;30.43;63.04
23223;BME280;11780;13.904;100.620;2022-12-07T11:39:03;100961.75;;;30.43;63.16
23223;BME280;11780;13.904;100.620;2022-12-07T11:41:36;100968.91;;;30.44;63.63
23223;BME280;11780;13.904;100.620;2022-12-07T11:47:16;100974.44;;;30.44;63.57
23223;BME280;11780;13.904;100.620;2022-12-07T11:49:52;100974.44;;;30.44;63.39
23223;BME280;11780;13.904;100.620;2022-12-07T11:52:53;100974.22;;;30.40;63.77
23223;BME280;11780;13.904;100.620;2022-12-07T11:55:52;100986.59;;;30.43;63.65
23223;BME280;11780;13.904;100.620;2022-12-07T12:04:04;100994.88;;;30.43;64.00
23223;BME280;11780;13.904;100.620;2022-12-07T12:06:55;100988.84;;;30.41;63.49
23223;BME280;11780;13.904;100.620;2022-12-07T12:09:55;100998.75;;;30.42;63.31
23223;BME280;11780;13.904;100.620;2022-12-07T12:13:56;101009.81;;;30.42;63.54
23223;BME280;11780;13.904;100.620;2022-12-07T12:16:56;101007.84;;;30.42;63.27
23223;BME280;11780;13.904;100.620;2022-12-07T12:19:42;101019.22;;;30.41;63.42
23223;BME280;11780;13.904;100.620;2022-12-07T12:22:38;101015.13;;;30.38;63.48
23223;BME280;11780;13.904;100.620;2022-12-07T12:28:31;101033.31;;;30.39;63.71
23223;BME280;11780;13.904;100.620;2022-12-07T12:31:15;101036.38;;;30.37;63.78
23223;BME280;11780;13.904;100.620;2022-12-07T12:33:58;101041.59;;;30.39;63.73
23223;BME280;11780;13.904;100.620;2022-12-07T12:37:07;101037.53;;;30.36;63.57
23223;BME280;11780;13.904;100.620;2022-12-07T12:39:29;101046.59;;;30.37;63.26
23223;BME280;11780;13.904;100.620;2022-12-07T12:41:59;101051.31;;;30.36;63.40
23223;BME280;11780;13.904;100.620;2022-12-07T12:50:35;101064.00;;;30.37;63.73
23223;BME280;11780;13.904;100.620;2022-12-07T12:53:26;101060.41;;;30.37;63.56
23223;BME280;11780;13.904;100.620;2022-12-07T12:58:46;101077.47;;;30.39;63.76
23223;BME280;11780;13.904;100.620;2022-12-07T13:01:38;101078.59;;;30.38;63.76
23223;BME280;11780;13.904;100.620;2022-12-07T13:04:21;101088.84;;;30.37;63.57
23223;BME280;11780;13.904;100.620;2022-12-07T13:06:54;101086.06;;;30.37;63.62
23223;BME280;11780;13.904;100.620;2022-12-07T13:09:27;101089.78;;;30.33;63.71
23223;BME280;11780;13.904;100.620;2022-12-07T13:12:02;101092.22;;;30.34;63.92
23223;BME280;11780;13.904;100.620;2022-12-07T13:14:55;101101.00;;;30.36;63.86
23223;BME280;11780;13.904;100.620;2022-12-07T13:20:06;101102.94;;;30.36;63.99
23223;BME280;11780;13.904;100.620;2022-12-07T13:22:47;101103.25;;;30.34;64.14
23223;BME280;11780;13.904;100.620;2022-12-07T13:25:30;101111.22;;;30.36;64.36
23223;BME280;11780;13.904;100.620;2022-12-07T13:28:16;101107.63;;;30.35;64.13
23223;BME280;11780;13.904;100.620;2022-12-07T13:33:22;101122.06;;;30.32;64.46
23223;BME280;11780;13.904;100.620;2022-12-07T13:35:56;101117.88;;;30.35;64.22
23223;BME280;11780;13.904;100.620;2022-12-07T13:50:21;101147.81;;;30.28;63.93
23223;BME280;11780;13.904;100.620;2022-12-07T13:52:54;101150.59;;;30.28;64.03
23223;BME280;11780;13.904;100.620;2022-12-07T13:55:24;101154.28;;;30.23;63.95
23223;BME280;11780;13.904;100.620;2022-12-07T13:57:54;101154.56;;;30.21;64.93
23223;BME280;11780;13.904;100.620;2022-12-07T14:00:25;101150.69;;;30.22;65.08
23223;BME280;11780;13.904;100.620;2022-12-07T14:05:43;101152.53;;;30.27;65.07
23223;BME280;11780;13.904;100.620;2022-12-07T14:13:28;101171.13;;;30.35;64.80
23223;BME280;11780;13.904;100.620;2022-12-07T14:16:01;101171.72;;;30.46;64.78
23223;BME280;11780;13.904;100.620;2022-12-07T14:18:41;101175.00;;;30.34;64.82
23223;BME280;11780;13.904;100.620;2022-12-07T14:21:15;101184.41;;;30.33;64.64
23223;BME280;11780;13.904;100.620;2022-12-07T14:24:10;101183.78;;;30.36;64.64
23223;BME280;11780;13.904;100.620;2022-12-07T14:26:41;101185.16;;;30.25;64.74
23223;BME280;11780;13.904;100.620;2022-12-07T14:29:39;101179.31;;;30.27;64.68
23223;BME280;11780;13.904;100.620;2022-12-07T14:32:24;101192.69;;;30.33;64.39
23223;BME280;11780;13.904;100.620;2022-12-07T14:35:24;101203.22;;;30.31;64.87
23223;BME280;11780;13.904;100.620;2022-12-07T14:37:54;101191.66;;;30.29;64.86
23223;BME280;11780;13.904;100.620;2022-12-07T14:40:27;101190.06;;;30.28;64.87
23223;BME280;11780;13.904;100.620;2022-12-07T14:43:01;101185.25;;;30.20;64.92
23223;BME280;11780;13.904;100.620;2022-12-07T14:45:32;101187.28;;;30.14;64.79
23223;BME280;11780;13.904;100.620;2022-12-07T14:48:03;101185.16;;;30.11;64.68
23223;BME280;11780;13.904;100.620;2022-12-07T14:50:53;101181.59;;;30.11;65.09
23223;BME280;11780;13.904;100.620;2022-12-07T14:53:47;101181.16;;;30.17;65.18
23223;BME280;11780;13.904;100.620;2022-12-07T14:56:24;101190.06;;;30.28;64.46
23223;BME280;11780;13.904;100.620;2022-12-07T14:58:54;101196.06;;;30.30;65.23